Armstrong, Florida
Current Conditions -  °F | °C
As of 8:58 PM on Friday 28 Nov 2014 (Local Time) from KSGJ Reporting Station
Clear Clear  
Wind Chill:   Ceiling: Unl
Heat Index:   Visibility: 10mi
Dew Point:   Wind: 8mph
Humidity: 82%   Direction: 310°NW
Pressure: 30.33"   Gusts: NA
Location:  29.7919°N, 81.4499°W
Report Text: KSGJ 290158Z AUTO 31007KT 10SM CLR 07/04 A3033 RMK AO2 SLP271 T00670039
Loading
Personal Weather Stations






























Interactive Weather Map New forecast layout! Learn more

10-Day Weather Forecast

Advertisements
Track Severe Weather on mobile